Etusivu
METAR-TAF:

METAR-TAF

Lentoasemat :

Monroe Municipal Airport

Monroe, Wisconsin, Yhdysvallat

Leveyspiiri: 42-36-54N, Pituuspiiri: 089-35-27W, korkeus merenpinnasta: 331 m

Tämänhetkinen sää

Tämä raportti tehtiin 27 minuuttia sitten, kello 19.35 UTC
Tuuli 12 kn lännestä/lounaasta
Lämpötila 4°C
Kosteus 56%
Ilmanpaine 1026 hPa
Näkyvyys: 16.1 km
selkeää

METAR: KEFT 251935Z AUTO 25012KT 10SM CLR 04/M04 A3029 RMK AO2 T00361043

Aika: 14:02 (20:02 UTC)


TAF: puuttuu

Säähavainnot ja -ennusteet yli 4000 lentoasemalta (METAR- ja TAF-raportit).

Käytössä olevat sääasemat on merkitty karttaan keltaisilla ja punaisilla pisteillä.

Aseta hiiri pisteen päälle nähdäksesi sääaseman nimen.

Klikkaa sitten nähdäksesi säähavainnot ja -ennusteet.

Kartan vaihtaminen: klikkaa mustalla rastilla varustettuja vihreitä pisteitä, niin voit zoomata sisään; viivalla varustettua vihreää pistettä, niin voit zoomata ulos tai vihreitä nuolia, niin pääset viereisille kartoille.


METAR-TAF: